Terminal Aerodrome Forecast
Issued by NWS Pueblo, CO

Home | Current Version | Previous Version | Text Only | Print | Product List | Glossary On
Versions: 1 2 3 4 5 6 7 8 9 10 11 12 13 14 15 16 17 18 19 20 21 22 23 24 25 26 27 28 29 30 31 32 33 34 35 36 37 38 39
000
FTUS45 KPUB 050121 AAA
TAFCOS
TAF AMD
KCOS 050121Z 0501/0524 15008KT P6SM VCTS SCT020CB OVC040
      TEMPO 0501/0503 VRB18G28KT 4SM -TSRA BKN020CB
     FM050400 13008KT P6SM VCSH SCT020 OVC040
     FM050800 10006KT 5SM BR VCSH SCT010 OVC020
     FM051300 12010KT 5SM -SHRA BR SCT015 OVC025
     FM052100 20012KT P6SM VCTS SCT030CB BKN060=

USA.gov is the U.S. government's official web portal to all federal, state and local government web resources and services.